Terminal Aerodrome Forecast
Issued by NWS Cleveland, OH

Home | Current Version | Previous Version | Text Only | Print | Product List | Glossary Off
Versions: 1 2 3 4 5 6 7 8 9 10 11 12 13 14 15

000
FTUS41 KCLE 162300
TAFYNG
TAF
KYNG 162320Z 1700/1724 33005KT P6SM SCT040
     FM170800 VRB02KT 3SM BR SKC
      TEMPO 1711/1713 3/4SM BR BKN002
     FM171500 24006KT P6SM SCT025=

USA.gov is the U.S. government's official web portal to all federal, state and local government web resources and services.